Time;durP1;ratioP1;P1;durP2;ratioP2;P2;SDS_P1;SDS_P2;PMS_P1;PMS_P2;Temp;Humidity;BMP_temperature;BMP_pressure;BME280_temperature;BME280_humidity;BME280_pressure;Samples;Min_cycle;Max_cycle;Signal;HPM_P1;HPM_P2
2022/10/10 00:00:38;;;;;;;6.03;2.97;;;9.20;99.90;;;;;;5029746;28;20110;-76
2022/10/10 00:03:06;;;;;;;6.80;3.00;;;9.10;99.90;;;;;;5029776;28;20120;-78
2022/10/10 00:05:32;;;;;;;6.63;2.75;;;9.10;99.90;;;;;;5023550;28;20836;-76
2022/10/10 00:07:57;;;;;;;8.95;2.88;;;9.10;99.90;;;;;;5013727;28;20046;-76
2022/10/10 00:10:24;;;;;;;6.88;4.10;;;9.10;99.90;;;;;;5029443;28;20396;-76
2022/10/10 00:12:50;;;;;;;3.60;3.30;;;9.20;99.90;;;;;;5030019;28;20496;-76
2022/10/10 00:15:18;;;;;;;9.32;3.42;;;9.20;99.90;;;;;;5027844;28;20049;-76
2022/10/10 00:17:44;;;;;;;6.53;3.30;;;9.20;99.90;;;;;;5019744;28;20049;-75
2022/10/10 00:20:12;;;;;;;6.35;3.10;;;9.10;99.90;;;;;;5029387;28;20041;-76
2022/10/10 00:22:38;;;;;;;10.85;4.03;;;9.20;99.90;;;;;;5029306;28;20055;-76
2022/10/10 00:25:05;;;;;;;6.68;3.03;;;9.10;99.90;;;;;;5023844;28;20448;-75
2022/10/10 00:27:31;;;;;;;7.63;3.65;;;9.20;99.90;;;;;;5015937;28;20408;-76
2022/10/10 00:29:57;;;;;;;7.63;3.83;;;9.10;99.90;;;;;;5028153;28;20148;-74
2022/10/10 00:32:23;;;;;;;8.02;4.60;;;9.00;99.90;;;;;;5028901;28;20044;-76
2022/10/10 00:34:49;;;;;;;4.32;3.17;;;9.10;99.90;;;;;;5028699;28;20586;-76
2022/10/10 00:37:15;;;;;;;4.22;3.50;;;9.10;99.90;;;;;;5025086;28;20084;-76
2022/10/10 00:39:40;;;;;;;8.00;3.53;;;8.90;99.90;;;;;;5026515;28;20041;-75
2022/10/10 00:42:08;;;;;;;7.18;4.00;;;9.00;99.90;;;;;;5029627;28;20460;-78
2022/10/10 00:44:35;;;;;;;11.25;3.70;;;8.90;99.90;;;;;;5027189;28;20551;-75
2022/10/10 00:47:01;;;;;;;6.22;3.70;;;9.00;99.90;;;;;;5024709;28;20069;-76
2022/10/10 00:49:30;;;;;;;8.15;3.53;;;8.90;99.90;;;;;;5025980;28;20081;-76
2022/10/10 00:51:58;;;;;;;12.25;5.03;;;8.90;99.90;;;;;;5013165;28;20125;-76
2022/10/10 00:54:26;;;;;;;6.65;3.38;;;8.90;99.90;;;;;;5029204;28;20049;-77
2022/10/10 00:56:59;;;;;;;6.95;3.95;;;8.80;99.90;;;;;;5030032;28;20029;-77
2022/10/10 00:59:29;;;;;;;5.47;3.95;;;8.80;99.90;;;;;;5014139;28;20046;-76
2022/10/10 01:01:55;;;;;;;;;;;8.90;99.90;;;;;;5011697;28;20044;-76
2022/10/10 01:04:41;;;;;;;7.10;3.97;;;8.80;99.90;;;;;;5016351;28;19925;-76
2022/10/10 01:07:11;;;;;;;6.25;4.22;;;8.80;99.90;;;;;;5021645;28;20042;-77
2022/10/10 01:09:38;;;;;;;;;;;8.80;99.90;;;;;;5030463;28;20136;-77
2022/10/10 01:12:16;;;;;;;9.75;4.22;;;8.80;99.90;;;;;;5030302;28;19921;-76
2022/10/10 01:15:02;;;;;;;6.63;3.85;;;8.80;99.90;;;;;;5010535;28;20121;-73
2022/10/10 01:17:31;;;;;;;6.70;3.10;;;8.80;99.90;;;;;;5014796;28;20125;-76
2022/10/10 01:20:15;;;;;;;6.25;4.07;;;8.70;99.90;;;;;;5027796;28;20447;-77
2022/10/10 01:23:02;;;;;;;8.13;3.40;;;8.70;99.90;;;;;;5027386;28;20041;-75
2022/10/10 01:25:52;;;;;;;8.43;3.97;;;8.70;99.90;;;;;;5026778;28;20049;-76
2022/10/10 01:28:54;;;;;;;4.38;3.95;;;8.60;99.90;;;;;;5018842;28;20038;-76
2022/10/10 01:31:23;;;;;;;5.55;4.03;;;8.70;99.90;;;;;;5017812;28;20387;-76
2022/10/10 01:33:54;;;;;;;5.05;4.18;;;8.60;99.90;;;;;;5024594;28;20133;-76
2022/10/10 01:36:39;;;;;;;7.05;4.57;;;8.60;99.90;;;;;;5023228;28;20038;-75
2022/10/10 01:39:17;;;;;;;11.98;5.28;;;8.60;99.90;;;;;;5024290;28;20053;-75
2022/10/10 01:41:51;;;;;;;6.60;3.95;;;8.60;99.90;;;;;;5025926;28;20046;-76
2022/10/10 01:44:17;;;;;;;8.60;4.43;;;8.60;99.90;;;;;;5023340;28;20049;-74
2022/10/10 01:46:42;;;;;;;5.57;4.28;;;8.50;99.90;;;;;;5015702;28;20111;-76
2022/10/10 01:49:08;;;;;;;7.32;4.40;;;8.50;99.90;;;;;;5011675;28;20055;-75
2022/10/10 01:51:51;;;;;;;6.93;4.05;;;8.50;99.90;;;;;;5026893;28;20046;-76
2022/10/10 01:54:37;;;;;;;5.18;4.18;;;8.40;99.90;;;;;;5024745;28;20479;-75
2022/10/10 01:57:30;;;;;;;7.28;4.78;;;8.50;99.90;;;;;;5027816;28;20073;-77
2022/10/10 01:59:59;;;;;;;8.32;4.07;;;8.40;99.90;;;;;;5016827;28;20127;-76
2022/10/10 02:02:52;;;;;;;9.00;4.97;;;8.40;99.90;;;;;;5028842;28;20125;-75
2022/10/10 02:05:31;;;;;;;5.90;4.25;;;8.30;99.90;;;;;;5028746;28;20045;-77
2022/10/10 02:08:05;;;;;;;18.10;5.53;;;8.30;99.90;;;;;;5025424;28;20053;-76
2022/10/10 02:10:35;;;;;;;9.55;5.78;;;8.30;99.90;;;;;;5026144;28;20128;-75
2022/10/10 02:13:02;;;;;;;5.72;4.22;;;8.40;99.90;;;;;;5018719;28;20041;-76
2022/10/10 02:15:39;;;;;;;6.43;4.28;;;8.30;99.90;;;;;;5022386;28;20041;-77
2022/10/10 02:18:07;;;;;;;11.85;5.60;;;8.30;99.90;;;;;;5024806;28;20041;-76
2022/10/10 02:20:34;;;;;;;7.20;5.00;;;8.30;99.90;;;;;;5023614;28;20076;-76
2022/10/10 02:23:00;;;;;;;7.78;5.38;;;8.40;99.90;;;;;;5025977;28;20080;-76
2022/10/10 02:25:30;;;;;;;5.03;4.43;;;8.30;99.90;;;;;;5025423;28;20475;-74
2022/10/10 02:27:59;;;;;;;8.88;4.50;;;8.30;99.90;;;;;;5027761;28;20491;-77
2022/10/10 02:30:24;;;;;;;10.95;5.32;;;8.20;99.90;;;;;;5023880;28;20060;-74
2022/10/10 02:33:00;;;;;;;6.97;4.95;;;8.30;99.90;;;;;;5025292;28;20041;-76
2022/10/10 02:35:35;;;;;;;7.60;4.70;;;8.30;99.90;;;;;;5029153;28;20397;-73
2022/10/10 02:38:02;;;;;;;7.05;4.75;;;8.20;99.90;;;;;;5013591;28;20073;-76
2022/10/10 02:40:31;;;;;;;8.10;5.05;;;8.10;99.90;;;;;;5024644;28;20041;-74
2022/10/10 02:43:00;;;;;;;9.00;5.63;;;8.20;99.90;;;;;;5019828;28;20096;-77
2022/10/10 02:45:29;;;;;;;8.77;5.40;;;8.10;99.90;;;;;;5012352;28;20073;-76
2022/10/10 02:47:55;;;;;;;8.68;4.78;;;8.10;99.90;;;;;;5030239;28;20042;-77
2022/10/10 02:50:21;;;;;;;7.07;5.50;;;8.10;99.90;;;;;;5028062;28;20049;-74
2022/10/10 02:52:47;;;;;;;13.02;6.47;;;8.10;99.90;;;;;;5025380;28;20113;-76
2022/10/10 02:55:13;;;;;;;7.15;5.13;;;8.10;99.90;;;;;;5014265;28;20120;-74
2022/10/10 02:57:38;;;;;;;8.60;5.55;;;8.10;99.90;;;;;;5031120;28;20073;-76
2022/10/10 03:00:05;;;;;;;5.22;4.50;;;8.10;99.90;;;;;;5030720;28;20490;-77
2022/10/10 03:02:31;;;;;;;6.00;4.75;;;8.20;99.90;;;;;;5030146;28;20471;-76
2022/10/10 03:04:57;;;;;;;8.80;5.75;;;8.10;99.90;;;;;;5017259;28;20111;-75
2022/10/10 03:07:24;;;;;;;11.32;5.80;;;8.20;99.90;;;;;;5029349;28;20465;-77
2022/10/10 03:09:50;;;;;;;6.55;4.90;;;8.10;99.90;;;;;;5027442;28;20060;-75
2022/10/10 03:12:17;;;;;;;8.43;5.80;;;8.10;99.90;;;;;;5025768;28;20048;-77
2022/10/10 03:14:42;;;;;;;7.05;4.78;;;8.20;99.90;;;;;;5030530;28;20037;-75
2022/10/10 03:17:08;;;;;;;8.32;5.20;;;8.10;99.90;;;;;;5027846;28;20042;-75
2022/10/10 03:19:34;;;;;;;6.90;5.53;;;8.10;99.90;;;;;;5026746;28;20044;-76
2022/10/10 03:21:59;;;;;;;11.48;6.80;;;8.20;99.90;;;;;;5018816;28;20042;-77
2022/10/10 03:24:25;;;;;;;6.95;4.65;;;8.20;99.90;;;;;;5030069;28;20055;-76
2022/10/10 03:26:51;;;;;;;13.63;6.22;;;8.10;99.90;;;;;;5019755;28;20037;-75
2022/10/10 03:29:17;;;;;;;8.00;5.03;;;8.00;99.90;;;;;;5014949;28;20045;-76
2022/10/10 03:31:43;;;;;;;15.75;6.80;;;8.20;99.90;;;;;;5028305;28;20120;-75
2022/10/10 03:34:09;;;;;;;8.65;4.82;;;8.20;99.90;;;;;;5030188;28;20045;-76
2022/10/10 03:36:35;;;;;;;9.02;5.53;;;8.10;99.90;;;;;;5014619;28;20518;-76
2022/10/10 03:39:00;;;;;;;8.32;5.53;;;8.20;99.90;;;;;;5026686;28;20041;-74
2022/10/10 03:41:26;;;;;;;6.18;4.55;;;8.10;99.90;;;;;;5028177;28;20072;-76
2022/10/10 03:43:52;;;;;;;6.85;4.75;;;8.00;99.90;;;;;;5022304;28;20057;-75
2022/10/10 03:46:18;;;;;;;11.95;6.57;;;8.10;99.90;;;;;;5025175;28;20068;-76
2022/10/10 03:48:43;;;;;;;8.23;5.32;;;8.10;99.90;;;;;;5030547;28;20112;-75
2022/10/10 03:51:09;;;;;;;8.13;5.57;;;8.00;99.90;;;;;;5027747;28;20120;-77
2022/10/10 03:53:35;;;;;;;18.65;6.93;;;8.00;99.90;;;;;;5016261;28;20056;-78
2022/10/10 03:56:01;;;;;;;9.23;5.80;;;8.00;99.90;;;;;;5025327;28;20042;-76
2022/10/10 03:58:27;;;;;;;5.57;4.85;;;8.10;99.90;;;;;;5025235;28;20058;-75
2022/10/10 04:00:57;;;;;;;7.90;5.22;;;7.90;99.90;;;;;;5027981;28;20033;-76
2022/10/10 04:03:23;;;;;;;24.00;6.50;;;7.90;99.90;;;;;;5029075;28;20060;-75
2022/10/10 04:05:49;;;;;;;14.43;6.80;;;7.90;99.90;;;;;;5013615;28;20037;-75
2022/10/10 04:08:15;;;;;;;8.88;5.07;;;7.90;99.90;;;;;;5017448;28;20041;-77
2022/10/10 04:10:41;;;;;;;7.72;5.57;;;7.90;99.90;;;;;;5017908;28;20050;-76
2022/10/10 04:13:06;;;;;;;13.00;6.72;;;7.80;99.90;;;;;;5027592;28;20049;-78
2022/10/10 04:15:32;;;;;;;8.18;6.07;;;7.90;99.90;;;;;;5028867;28;20527;-75
2022/10/10 04:17:58;;;;;;;7.95;5.68;;;7.80;99.90;;;;;;5027089;28;20091;-74
2022/10/10 04:20:24;;;;;;;11.52;6.03;;;7.80;99.90;;;;;;5026501;28;20405;-74
2022/10/10 04:22:50;;;;;;;8.60;5.43;;;7.80;99.90;;;;;;5026386;28;20060;-76
2022/10/10 04:25:16;;;;;;;9.25;5.68;;;7.90;99.90;;;;;;5028864;28;20048;-76
2022/10/10 04:27:42;;;;;;;12.20;7.13;;;7.90;99.90;;;;;;5024962;28;20045;-74
2022/10/10 04:30:09;;;;;;;10.35;5.05;;;7.80;99.90;;;;;;5025140;28;20050;-76
2022/10/10 04:32:35;;;;;;;6.30;4.78;;;7.90;99.90;;;;;;5026514;28;20124;-75
2022/10/10 04:35:02;;;;;;;8.70;6.03;;;7.80;99.90;;;;;;5018781;28;20052;-74
2022/10/10 04:37:28;;;;;;;10.23;5.97;;;7.90;99.90;;;;;;5024292;28;20068;-77
2022/10/10 04:39:54;;;;;;;8.45;5.93;;;7.80;99.90;;;;;;5024887;28;20038;-75
2022/10/10 04:42:20;;;;;;;7.05;6.13;;;7.70;99.90;;;;;;5023343;28;20497;-76
2022/10/10 04:44:45;;;;;;;9.32;6.03;;;7.70;99.90;;;;;;5028456;28;20053;-75
2022/10/10 04:47:12;;;;;;;11.25;6.20;;;7.80;99.90;;;;;;5027479;28;20052;-76
2022/10/10 04:49:38;;;;;;;7.40;6.03;;;7.70;99.90;;;;;;5027038;28;20115;-74
2022/10/10 04:52:03;;;;;;;12.80;7.18;;;7.80;99.90;;;;;;5023075;28;20504;-75
2022/10/10 04:54:29;;;;;;;10.15;6.32;;;7.80;99.90;;;;;;5027517;28;20045;-76
2022/10/10 04:56:55;;;;;;;11.95;6.28;;;7.60;99.90;;;;;;5028416;28;20053;-75
2022/10/10 04:59:20;;;;;;;9.30;6.55;;;7.50;99.90;;;;;;5022267;28;20099;-75
2022/10/10 05:01:46;;;;;;;7.63;5.93;;;7.60;99.90;;;;;;5026637;28;20045;-77
2022/10/10 05:04:13;;;;;;;10.57;7.30;;;7.70;99.90;;;;;;5010666;28;20120;-76
2022/10/10 05:06:38;;;;;;;8.40;6.32;;;7.60;99.90;;;;;;5019250;28;20060;-75
2022/10/10 05:09:04;;;;;;;9.63;6.32;;;7.50;99.90;;;;;;5019952;28;20050;-75
2022/10/10 05:11:30;;;;;;;10.18;8.13;;;7.70;99.90;;;;;;5024869;28;20052;-75
2022/10/10 05:13:55;;;;;;;16.33;7.25;;;7.60;99.90;;;;;;5021528;28;20701;-75
2022/10/10 05:16:21;;;;;;;7.88;6.60;;;7.70;99.90;;;;;;5025367;28;20079;-74
2022/10/10 05:18:46;;;;;;;12.32;6.65;;;7.50;99.90;;;;;;5029312;28;20041;-75
2022/10/10 05:21:12;;;;;;;11.05;6.82;;;7.60;99.90;;;;;;5021850;28;20046;-74
2022/10/10 05:23:40;;;;;;;7.50;6.13;;;7.70;99.90;;;;;;5029937;28;20403;-75
2022/10/10 05:26:06;;;;;;;8.98;6.93;;;7.70;99.90;;;;;;5024321;28;20061;-74
2022/10/10 05:28:34;;;;;;;14.02;8.38;;;7.60;99.90;;;;;;5025657;28;20037;-74
2022/10/10 05:30:59;;;;;;;12.05;8.40;;;7.60;99.90;;;;;;5020600;28;20088;-75
2022/10/10 05:33:25;;;;;;;9.13;5.47;;;7.40;99.90;;;;;;5021621;28;20081;-73
2022/10/10 05:35:51;;;;;;;26.55;9.77;;;7.60;99.90;;;;;;5023449;28;20049;-75
2022/10/10 05:38:16;;;;;;;18.35;7.40;;;7.40;99.90;;;;;;5028046;28;20068;-75
2022/10/10 05:40:42;;;;;;;9.55;7.38;;;7.60;99.90;;;;;;5020744;28;20030;-74
2022/10/10 05:43:08;;;;;;;15.93;9.07;;;7.60;99.90;;;;;;5026636;28;20084;-73
2022/10/10 05:45:34;;;;;;;14.75;7.20;;;7.50;99.90;;;;;;5017141;28;20037;-73
2022/10/10 05:48:00;;;;;;;11.02;6.82;;;7.50;99.90;;;;;;5025990;28;20408;-75
2022/10/10 05:50:29;;;;;;;10.88;6.85;;;7.40;99.90;;;;;;5021455;28;20072;-75
2022/10/10 05:52:55;;;;;;;10.68;7.30;;;7.50;99.90;;;;;;5027968;28;20396;-74
2022/10/10 05:55:21;;;;;;;10.48;6.55;;;7.70;99.90;;;;;;5025916;28;20071;-75
2022/10/10 05:57:47;;;;;;;7.25;6.50;;;7.50;99.90;;;;;;5023546;28;20044;-74
2022/10/10 06:00:13;;;;;;;9.75;5.90;;;7.40;99.90;;;;;;5021425;28;20056;-75
2022/10/10 06:02:39;;;;;;;11.10;7.22;;;7.50;99.90;;;;;;5025886;28;20407;-75
2022/10/10 06:05:05;;;;;;;11.32;6.85;;;7.70;99.90;;;;;;5025324;28;20446;-75
2022/10/10 06:07:31;;;;;;;11.95;7.57;;;7.70;99.90;;;;;;5024178;28;20678;-74
2022/10/10 06:09:57;;;;;;;11.57;8.57;;;7.70;99.90;;;;;;5028686;28;20520;-74
2022/10/10 06:12:22;;;;;;;22.52;8.15;;;7.80;99.90;;;;;;5022095;28;20393;-76
2022/10/10 06:14:48;;;;;;;12.57;7.55;;;7.80;99.90;;;;;;5026505;28;20435;-75
2022/10/10 06:17:13;;;;;;;12.93;7.15;;;7.90;99.90;;;;;;5027374;28;20046;-74
2022/10/10 06:19:39;;;;;;;14.05;5.80;;;7.80;99.90;;;;;;5031441;28;20129;-74
2022/10/10 06:22:05;;;;;;;11.38;6.80;;;7.80;99.90;;;;;;5021790;28;20050;-74
2022/10/10 06:24:30;;;;;;;9.85;7.32;;;7.80;99.90;;;;;;5035272;28;20443;-80
2022/10/10 06:26:56;;;;;;;8.90;6.35;;;7.80;99.90;;;;;;5029989;28;20044;-75
2022/10/10 06:29:22;;;;;;;10.57;6.07;;;7.90;99.90;;;;;;5030042;28;20045;-77
2022/10/10 06:31:47;;;;;;;12.90;7.55;;;7.90;99.90;;;;;;5026387;28;20696;-75
2022/10/10 06:34:13;;;;;;;14.48;6.68;;;8.10;99.90;;;;;;5016955;28;20060;-74
2022/10/10 06:36:38;;;;;;;9.80;6.28;;;8.10;99.90;;;;;;5021559;28;20542;-76
2022/10/10 06:39:04;;;;;;;8.80;7.15;;;8.10;99.90;;;;;;5022479;28;20049;-81
2022/10/10 06:41:30;;;;;;;10.07;6.97;;;8.30;99.90;;;;;;5024916;28;20045;-77
2022/10/10 06:43:56;;;;;;;10.93;7.18;;;8.30;99.90;;;;;;5030899;28;20124;-76
2022/10/10 06:46:21;;;;;;;7.38;5.85;;;8.40;99.90;;;;;;5029400;28;20045;-76
2022/10/10 06:48:47;;;;;;;7.93;6.32;;;8.40;99.90;;;;;;5020936;28;20046;-77
2022/10/10 06:51:15;;;;;;;10.95;6.13;;;8.60;99.90;;;;;;5028638;28;20056;-77
2022/10/10 06:53:42;;;;;;;8.93;6.40;;;8.50;99.90;;;;;;5029682;28;20037;-77
2022/10/10 06:56:16;;;;;;;10.38;6.57;;;8.60;99.90;;;;;;5023242;28;20643;-78
2022/10/10 06:58:43;;;;;;;7.40;6.70;;;8.70;99.90;;;;;;5022989;28;20049;-77
2022/10/10 07:01:09;;;;;;;7.53;5.90;;;8.80;99.90;;;;;;5021283;28;20037;-77
2022/10/10 07:03:34;;;;;;;9.65;6.85;;;8.80;99.90;;;;;;5017782;28;20176;-77
2022/10/10 07:06:01;;;;;;;12.60;8.85;;;8.80;99.90;;;;;;5014367;28;20466;-77
2022/10/10 07:08:27;;;;;;;9.70;7.28;;;8.90;99.90;;;;;;5025244;28;20120;-76
2022/10/10 07:10:53;;;;;;;11.05;7.43;;;8.90;99.90;;;;;;5022684;28;20477;-77
2022/10/10 07:13:20;;;;;;;10.13;6.25;;;9.00;99.90;;;;;;5026672;28;20124;-78
2022/10/10 07:15:46;;;;;;;7.47;6.07;;;9.00;99.90;;;;;;5022167;28;20049;-77
2022/10/10 07:18:11;;;;;;;11.18;6.75;;;9.00;99.90;;;;;;5026228;28;20399;-76
2022/10/10 07:20:38;;;;;;;17.80;7.90;;;9.20;99.90;;;;;;5021838;28;20034;-77
2022/10/10 07:23:04;;;;;;;22.00;6.60;;;8.90;99.90;;;;;;5019932;28;20053;-77
2022/10/10 07:25:30;;;;;;;7.60;5.65;;;9.00;99.90;;;;;;5019298;28;20620;-77
2022/10/10 07:27:56;;;;;;;7.53;6.13;;;9.00;99.90;;;;;;5030730;28;20044;-78
2022/10/10 07:30:25;;;;;;;15.55;7.75;;;9.00;99.90;;;;;;5028964;28;20046;-77
2022/10/10 07:32:54;;;;;;;11.27;6.47;;;9.10;99.90;;;;;;5021687;28;20029;-78
2022/10/10 07:35:21;;;;;;;8.55;6.63;;;9.10;99.90;;;;;;5025022;28;20496;-77
2022/10/10 07:37:47;;;;;;;7.60;5.53;;;9.30;99.90;;;;;;5029352;28;20377;-74
2022/10/10 07:40:12;;;;;;;10.10;6.75;;;9.30;99.90;;;;;;5023942;28;20063;-74
2022/10/10 07:42:38;;;;;;;8.43;7.30;;;9.40;99.90;;;;;;5028178;28;20499;-77
2022/10/10 07:45:05;;;;;;;8.43;6.85;;;9.50;99.90;;;;;;5013994;28;20134;-76
2022/10/10 07:47:31;;;;;;;15.35;6.95;;;9.70;99.90;;;;;;5012345;28;20045;-77
2022/10/10 07:49:56;;;;;;;13.15;6.80;;;9.80;99.90;;;;;;5024572;28;20049;-77
2022/10/10 07:52:22;;;;;;;9.95;7.18;;;9.90;99.90;;;;;;5025221;28;20111;-76
2022/10/10 07:54:48;;;;;;;9.65;6.30;;;9.90;99.90;;;;;;5026486;28;20053;-78
2022/10/10 07:57:13;;;;;;;11.70;7.50;;;10.00;99.90;;;;;;5028563;28;20048;-77
2022/10/10 07:59:39;;;;;;;12.10;8.32;;;10.10;99.90;;;;;;5028612;28;20408;-76
2022/10/10 08:02:05;;;;;;;11.63;5.75;;;10.20;99.90;;;;;;5029103;28;20041;-76
2022/10/10 08:04:31;;;;;;;14.60;6.57;;;10.50;99.90;;;;;;5024881;28;20041;-75
2022/10/10 08:06:57;;;;;;;9.68;7.78;;;10.60;99.90;;;;;;5026374;28;20042;-75
2022/10/10 08:09:23;;;;;;;9.18;7.65;;;10.70;99.90;;;;;;5026596;28;20045;-76
2022/10/10 08:11:49;;;;;;;13.90;7.47;;;10.70;99.90;;;;;;5028267;28;20468;-76
2022/10/10 08:14:15;;;;;;;10.05;6.47;;;10.90;99.90;;;;;;5028058;28;20100;-76
2022/10/10 08:16:40;;;;;;;11.25;6.47;;;11.00;99.90;;;;;;5029311;28;20064;-76
2022/10/10 08:19:06;;;;;;;12.73;8.00;;;10.90;99.90;;;;;;5012505;28;20155;-77
2022/10/10 08:21:34;;;;;;;15.85;7.00;;;11.00;99.90;;;;;;5010242;28;20034;-77
2022/10/10 08:24:00;;;;;;;11.60;7.22;;;10.90;99.90;;;;;;5026627;28;20491;-76
2022/10/10 08:26:26;;;;;;;9.73;6.90;;;11.10;99.90;;;;;;5027413;28;20136;-77
2022/10/10 08:28:52;;;;;;;9.05;6.25;;;10.90;99.90;;;;;;5027643;28;20064;-74
2022/10/10 08:31:19;;;;;;;15.57;5.90;;;11.10;99.90;;;;;;5028907;28;20069;-75
2022/10/10 08:33:46;;;;;;;12.55;8.48;;;11.20;99.90;;;;;;5019718;28;20051;-75
2022/10/10 08:36:15;;;;;;;9.90;6.43;;;11.20;99.90;;;;;;5027640;28;20095;-76
2022/10/10 08:38:41;;;;;;;13.13;7.28;;;11.30;99.90;;;;;;5020033;28;20116;-75
2022/10/10 08:41:16;;;;;;;21.92;8.80;;;11.50;99.90;;;;;;5027749;28;20481;-75
2022/10/10 08:43:50;;;;;;;7.40;5.57;;;11.50;99.90;;;;;;5021906;28;20162;-74
2022/10/10 08:46:29;;;;;;;9.45;7.00;;;11.70;99.90;;;;;;5011049;28;20175;-74
2022/10/10 08:48:59;;;;;;;8.40;7.38;;;11.80;99.90;;;;;;5028242;28;20111;-76
2022/10/10 08:51:31;;;;;;;7.57;5.97;;;11.70;99.90;;;;;;5026063;28;20091;-75
2022/10/10 08:54:03;;;;;;;17.30;7.68;;;11.90;99.90;;;;;;5022279;28;20286;-76
2022/10/10 08:56:31;;;;;;;10.82;7.35;;;11.90;99.90;;;;;;5026862;28;20052;-75
2022/10/10 08:59:14;;;;;;;10.30;6.35;;;11.90;99.90;;;;;;5026942;28;20567;-75
2022/10/10 09:01:41;;;;;;;17.23;7.63;;;12.00;99.90;;;;;;5028205;28;20095;-76
2022/10/10 09:04:15;;;;;;;11.32;6.95;;;11.90;99.90;;;;;;5025711;28;20437;-76
2022/10/10 09:06:53;;;;;;;18.45;9.98;;;11.80;99.90;;;;;;5028501;28;20088;-76
2022/10/10 09:09:27;;;;;;;11.55;7.72;;;11.90;99.90;;;;;;5028257;28;20137;-75
2022/10/10 09:12:14;;;;;;;10.35;7.53;;;12.00;99.90;;;;;;5022717;28;20140;-76
2022/10/10 09:14:54;;;;;;;10.05;7.03;;;12.20;99.90;;;;;;5025904;28;20044;-76
2022/10/10 09:17:40;;;;;;;12.10;6.95;;;12.20;99.90;;;;;;5028839;28;20045;-76
2022/10/10 09:20:37;;;;;;;11.15;7.65;;;12.30;99.90;;;;;;5027422;28;20060;-78
2022/10/10 09:23:11;;;;;;;14.13;7.35;;;12.30;99.90;;;;;;5023858;28;20417;-75
2022/10/10 09:25:42;;;;;;;12.65;7.65;;;12.30;99.90;;;;;;5029661;28;20045;-75
2022/10/10 09:28:16;;;;;;;12.10;7.03;;;12.50;99.90;;;;;;5027955;28;20751;-75
2022/10/10 09:30:51;;;;;;;15.98;8.35;;;12.50;99.90;;;;;;5027379;28;20049;-74
2022/10/10 09:33:47;;;;;;;14.05;7.15;;;12.60;99.90;;;;;;5025863;28;20085;-73
2022/10/10 09:36:18;;;;;;;12.52;8.13;;;12.60;99.90;;;;;;5012157;28;20089;-75
2022/10/10 09:38:50;;;;;;;11.57;7.35;;;12.70;99.90;;;;;;5028111;28;20045;-74
2022/10/10 09:41:33;;;;;;;20.40;9.23;;;12.80;99.90;;;;;;5030221;28;20077;-76
2022/10/10 09:44:04;;;;;;;13.65;7.28;;;12.80;99.90;;;;;;5018911;28;20496;-75
2022/10/10 09:46:29;;;;;;;30.15;7.68;;;12.90;99.90;;;;;;5028537;28;20044;-75
2022/10/10 09:48:56;;;;;;;18.48;7.13;;;12.70;99.90;;;;;;5030655;28;20153;-75
2022/10/10 09:51:22;;;;;;;13.45;8.52;;;12.90;99.90;;;;;;5029412;28;20649;-75
2022/10/10 09:53:49;;;;;;;11.32;8.18;;;12.90;99.90;;;;;;5028653;28;20856;-75
2022/10/10 09:56:21;;;;;;;11.27;7.97;;;12.90;99.90;;;;;;5030289;28;20049;-75
2022/10/10 09:58:49;;;;;;;12.10;7.97;;;12.90;99.90;;;;;;5030345;28;20132;-75
2022/10/10 10:01:25;;;;;;;12.30;7.80;;;13.00;99.90;;;;;;5029691;28;20077;-75
2022/10/10 10:04:15;;;;;;;13.88;7.68;;;13.20;99.90;;;;;;5028786;28;20510;-74
2022/10/10 10:06:47;;;;;;;13.48;6.85;;;13.10;99.90;;;;;;5015101;28;20046;-75
2022/10/10 10:09:17;;;;;;;12.32;7.57;;;13.20;99.90;;;;;;5030448;28;20107;-74
2022/10/10 10:11:45;;;;;;;13.00;8.10;;;13.40;99.90;;;;;;5030613;28;20045;-75
2022/10/10 10:14:28;;;;;;;12.05;7.85;;;13.60;99.90;;;;;;5027014;28;20077;-74
2022/10/10 10:17:06;;;;;;;17.02;7.75;;;13.70;99.90;;;;;;5028426;28;20515;-75
2022/10/10 10:19:45;;;;;;;10.38;7.07;;;14.00;99.90;;;;;;5024273;28;20128;-74
2022/10/10 10:22:30;;;;;;;13.38;9.00;;;14.00;99.90;;;;;;5031121;28;20049;-74
2022/10/10 10:24:56;;;;;;;11.40;7.57;;;14.00;99.90;;;;;;5031099;28;20133;-75
2022/10/10 10:27:24;;;;;;;11.25;8.02;;;14.20;99.90;;;;;;5028098;28;20045;-74
2022/10/10 10:29:53;;;;;;;13.85;7.10;;;14.00;99.90;;;;;;5008136;28;20059;-73
2022/10/10 10:32:48;;;;;;;12.25;6.85;;;14.00;99.90;;;;;;5029294;28;20038;-74
2022/10/10 10:35:32;;;;;;;9.48;6.88;;;14.30;99.90;;;;;;5013125;28;20050;-73
2022/10/10 10:38:20;;;;;;;8.02;6.35;;;14.40;99.90;;;;;;5028024;28;20037;-73
2022/10/10 10:41:25;;;;;;;13.90;7.13;;;14.20;99.90;;;;;;4999582;28;20046;-73
2022/10/10 10:44:00;;;;;;;14.57;8.48;;;14.20;99.90;;;;;;5009840;28;20103;-73
2022/10/10 10:47:08;;;;;;;12.57;7.97;;;14.30;99.90;;;;;;5027133;28;20047;-73
2022/10/10 10:49:48;;;;;;;10.77;7.40;;;14.00;99.90;;;;;;5028596;28;20049;-74
2022/10/10 10:52:36;;;;;;;15.43;7.88;;;13.90;99.90;;;;;;5027058;28;20045;-73
2022/10/10 10:55:34;;;;;;;11.77;6.43;;;13.70;99.90;;;;;;5015774;28;20050;-74
2022/10/10 10:58:35;;;;;;;8.20;6.28;;;13.80;99.90;;;;;;5028995;28;20147;-73
2022/10/10 11:01:04;;;;;;;10.02;7.47;;;13.70;99.90;;;;;;5015609;28;20048;-73
2022/10/10 11:03:44;;;;;;;12.13;8.18;;;13.60;99.90;;;;;;5027314;28;20044;-73
2022/10/10 11:06:15;;;;;;;;;;;13.50;99.90;;;;;;5028879;28;20053;-73
2022/10/10 11:08:55;;;;;;;14.77;7.80;;;13.40;99.90;;;;;;5028476;28;19921;-73
2022/10/10 11:11:24;;;;;;;14.57;8.02;;;13.40;99.90;;;;;;5011182;28;20057;-73
2022/10/10 11:14:07;;;;;;;17.58;9.40;;;13.20;99.90;;;;;;5013614;28;20052;-73
2022/10/10 11:16:45;;;;;;;12.57;7.80;;;13.30;99.90;;;;;;5025401;28;20085;-73
2022/10/10 11:19:24;;;;;;;12.18;8.25;;;13.20;99.90;;;;;;5028615;28;20064;-73
2022/10/10 11:22:06;;;;;;;23.05;8.73;;;13.30;99.90;;;;;;5023285;28;20439;-73
2022/10/10 11:25:03;;;;;;;10.77;8.27;;;13.10;99.90;;;;;;5027588;28;20169;-73
2022/10/10 11:27:41;;;;;;;15.05;9.15;;;13.20;99.90;;;;;;5026694;28;20045;-74
2022/10/10 11:30:15;;;;;;;13.50;8.25;;;13.20;99.90;;;;;;5029315;28;20050;-73
2022/10/10 11:32:46;;;;;;;16.88;7.63;;;13.50;99.90;;;;;;5029739;28;20042;-73
2022/10/10 11:35:33;;;;;;;13.25;9.43;;;13.10;99.90;;;;;;5026575;28;20045;-71
2022/10/10 11:38:14;;;;;;;16.80;9.93;;;13.50;99.90;;;;;;5024554;28;20041;-76
2022/10/10 11:40:50;;;;;;;11.40;8.52;;;13.20;99.90;;;;;;5028459;28;20124;-76
2022/10/10 11:43:27;;;;;;;11.48;8.80;;;13.40;99.90;;;;;;5027165;28;20118;-74
2022/10/10 11:45:59;;;;;;;19.45;8.77;;;13.40;99.90;;;;;;5029416;28;20045;-74
2022/10/10 11:48:38;;;;;;;11.15;7.97;;;13.20;99.90;;;;;;5026694;28;20099;-74
2022/10/10 11:51:18;;;;;;;16.52;9.00;;;13.20;99.90;;;;;;5028008;28;20038;-75
2022/10/10 11:53:47;;;;;;;19.10;8.18;;;13.40;99.90;;;;;;5029371;28;20048;-74
2022/10/10 11:56:30;;;;;;;15.88;9.75;;;13.20;99.90;;;;;;5028200;28;20084;-73
2022/10/10 11:59:12;;;;;;;11.77;9.20;;;13.30;99.90;;;;;;5028035;28;20054;-75
2022/10/10 12:01:47;;;;;;;25.75;9.82;;;13.30;99.90;;;;;;5016848;28;20041;-76
2022/10/10 12:04:13;;;;;;;16.92;9.23;;;13.40;99.90;;;;;;5027335;28;20041;-75
2022/10/10 12:06:40;;;;;;;17.73;9.00;;;13.70;99.90;;;;;;5019740;28;20673;-74
2022/10/10 12:09:15;;;;;;;13.13;9.38;;;13.70;99.90;;;;;;5028118;28;20095;-74
2022/10/10 12:12:04;;;;;;;19.48;10.55;;;13.60;99.90;;;;;;5028342;28;20045;-73
2022/10/10 12:14:31;;;;;;;15.33;9.33;;;13.30;99.90;;;;;;5028865;28;20038;-74
2022/10/10 12:16:57;;;;;;;13.88;8.60;;;13.60;99.90;;;;;;5027634;28;20041;-74
2022/10/10 12:19:26;;;;;;;17.80;9.98;;;13.70;99.90;;;;;;5027566;28;20076;-74
2022/10/10 12:22:04;;;;;;;18.05;11.15;;;13.60;99.90;;;;;;5027833;28;20092;-74
2022/10/10 12:25:19;;;;;;;13.90;9.88;;;13.30;99.90;;;;;;5028645;28;20084;-73
2022/10/10 12:28:01;;;;;;;21.70;11.43;;;13.60;99.90;;;;;;5016671;28;20045;-74
2022/10/10 12:30:27;;;;;;;20.88;10.50;;;13.50;99.90;;;;;;5027911;28;20045;-74
2022/10/10 12:32:54;;;;;;;19.83;11.07;;;13.40;99.90;;;;;;5028123;28;20041;-74
2022/10/10 12:35:32;;;;;;;20.42;12.73;;;13.60;99.90;;;;;;5019132;28;20103;-74
2022/10/10 12:38:08;;;;;;;15.57;10.88;;;13.50;99.90;;;;;;5027172;28;20045;-74
2022/10/10 12:40:56;;;;;;;19.35;12.15;;;13.30;99.90;;;;;;5026395;28;20052;-73
2022/10/10 12:43:35;;;;;;;21.67;13.25;;;13.30;99.90;;;;;;5002920;28;20053;-73
2022/10/10 12:46:29;;;;;;;18.85;12.32;;;13.10;99.90;;;;;;5026326;28;20084;-74
2022/10/10 12:49:15;;;;;;;21.70;13.55;;;13.00;99.90;;;;;;5024778;28;20087;-73
2022/10/10 12:51:42;;;;;;;20.08;12.15;;;13.40;99.90;;;;;;5009351;28;20104;-74
2022/10/10 12:54:28;;;;;;;18.52;12.88;;;13.50;99.90;;;;;;5028818;28;20048;-74
2022/10/10 12:57:11;;;;;;;27.35;14.60;;;13.30;99.90;;;;;;5020013;28;20045;-74
2022/10/10 12:59:37;;;;;;;25.42;15.05;;;13.00;99.90;;;;;;5024684;28;20084;-74
2022/10/10 13:02:21;;;;;;;18.70;12.65;;;13.30;99.90;;;;;;5028008;28;20045;-74
2022/10/10 13:04:50;;;;;;;24.25;14.15;;;13.40;99.90;;;;;;5018307;28;20033;-73
2022/10/10 13:07:19;;;;;;;25.30;14.68;;;13.30;99.90;;;;;;5018786;28;20088;-74